Leeni — C4LT2 — position and weather

sailwx.info

Track history (hours):
 
Tides and Currents Weather Stations Pressure Air Temp Water Temp Dewpoint Dewpoint Depression Visibility Wind Speed Wind Dir Waves Ship Positions

Leeni

Last reported at 2018-Jun-21 03:22 UTC. Time now 2018-Jun-21 16:29 UTC.
Position N 47°18' W 002°07'.

Length 90 m; draft 5.8 m.

Type: Tanker. MMSI: 210318000.

Date/timePositionNaut miles runAvg speedWind from/ knotsBaromVisibWave heightAir tempDewpointWater temp
2018-Jun-21 03:22N 47°18' W 002°07'0 0.0
2018-Jun-21 03:00N 47°18' W 002°07'1 2.0
2018-Jun-21 02:30N 47°18' W 002°08'4 7.2
2018-Jun-21 02:00N 47°15' W 002°12'4 8.3
2018-Jun-21 01:30N 47°13' W 002°17'5 9.5
2018-Jun-21 01:00N 47°09' W 002°20'3 6.9
2018-Jun-21 00:31N 47°07' W 002°24'0 0.6
2018-Jun-20 23:56N 47°07' W 002°25'0 0.0
2018-Jun-20 23:29N 47°07' W 002°25'0 0.1
2018-Jun-20 22:56N 47°07' W 002°25'0 0.0
2018-Jun-20 22:29N 47°07' W 002°25'0 0.0
2018-Jun-20 21:59N 47°07' W 002°25'0 0.0
2018-Jun-20 21:29N 47°07' W 002°25'0 0.0
2018-Jun-20 20:38N 47°07' W 002°25'0 0.1
2018-Jun-20 20:29N 47°07' W 002°25'0 0.0
2018-Jun-20 19:59N 47°07' W 002°25'142 9.1
2018-Jun-20 04:21N 44°46' W 002°56'511.1
2018-Jun-20 03:53N 44°41' W 002°57'410.9
2018-Jun-20 03:30N 44°37' W 002°57'510.4
2018-Jun-20 02:59N 44°32' W 002°58'510.6
2018-Jun-20 02:31N 44°27' W 002°59'611.0
2018-Jun-20 01:59N 44°21' W 002°59'2111.0
2018-Jun-20 00:06N 44°00' W 003°01'111.1
2018-Jun-20 00:00N 43°59' W 003°01'910.9
2018-Jun-19 23:10N 43°50' W 003°03'210.9
2018-Jun-19 23:00N 43°48' W 003°03'610.9
2018-Jun-19 22:28N 43°43' W 003°04'511.1
2018-Jun-19 22:00N 43°37' W 003°05'611.3
2018-Jun-19 21:28N 43°31' W 003°05'511.2
2018-Jun-19 21:01N 43°26' W 003°05'5 9.2
2018-Jun-19 20:31N 43°22' W 003°05'0 0.0
2018-Jun-19 01:20N 43°22' W 003°05'0 0.5
2018-Jun-19 01:00N 43°22' W 003°05'3 5.1
2018-Jun-19 00:30N 43°24' W 003°04'0 0.1
2018-Jun-19 00:00N 43°24' W 003°04'0 0.0
2018-Jun-18 23:27N 43°24' W 003°04'0 0.0
2018-Jun-18 22:57N 43°24' W 003°04'0 0.0
2018-Jun-18 22:30N 43°24' W 003°04'0 0.0
2018-Jun-18 22:00N 43°24' W 003°04'0 0.0
2018-Jun-18 21:30N 43°24' W 003°04'0 0.0
2018-Jun-18 20:57N 43°24' W 003°04'0 0.0
2018-Jun-18 20:30N 43°24' W 003°04'0 0.0
2018-Jun-18 20:00N 43°24' W 003°04'0 0.1
2018-Jun-18 19:31N 43°24' W 003°04'2 3.7
2018-Jun-18 19:00N 43°25' W 003°06'4 8.8
2018-Jun-18 18:31N 43°29' W 003°09'611.3
2018-Jun-18 18:00N 43°34' W 003°12'611.4
2018-Jun-18 17:31N 43°40' W 003°15'611.3
2018-Jun-18 17:01N 43°45' W 003°18'  
2018-Jun-16 12:33N 52°47' W 005°36'110.5
2018-Jun-16 12:28N 52°48' W 005°36'510.2
2018-Jun-16 11:59N 52°53' W 005°35'5 9.5
2018-Jun-16 11:29N 52°57' W 005°34'8510.1
2018-Jun-16 03:02N 54°21' W 005°02'010.9
2018-Jun-16 03:00N 54°21' W 005°02'5 9.4
2018-Jun-16 02:30N 54°25' W 005°05'510.3
2018-Jun-16 02:01N 54°30' W 005°11'5 9.9
2018-Jun-16 01:31N 54°33' W 005°16'510.4
2018-Jun-16 01:01N 54°38' W 005°21'510.5
2018-Jun-16 00:31N 54°42' W 005°27'510.1
2018-Jun-16 00:00N 54°43' W 005°35'611.1
2018-Jun-15 23:30N 54°41' W 005°45'7 0.3
2018-Jun-14 21:48N 54°37' W 005°54'0 0.0
2018-Jun-14 21:30N 54°37' W 005°54'0 0.0
2018-Jun-14 21:00N 54°37' W 005°54'0 0.0
2018-Jun-14 20:27N 54°37' W 005°54'0 0.0
2018-Jun-14 19:57N 54°37' W 005°54'0 0.0
2018-Jun-14 19:28N 54°37' W 005°54'1 1.4
2018-Jun-14 19:00N 54°38' W 005°53'5 9.3
2018-Jun-14 18:30N 54°41' W 005°48'4 7.4
2018-Jun-14 18:00N 54°43' W 005°42'1 2.3
2018-Jun-14 17:30N 54°43' W 005°40'3 5.3
2018-Jun-14 17:00N 54°43' W 005°36'4 7.3
2018-Jun-14 16:30N 54°43' W 005°29'5 9.1
2018-Jun-14 16:00N 54°39' W 005°25'611.8
2018-Jun-14 15:30N 54°34' W 005°21'611.3
2018-Jun-14 15:00N 54°28' W 005°18'611.0
2018-Jun-14 14:30N 54°23' W 005°18'711.2
2018-Jun-14 13:55N 54°16' W 005°18'8410.8
2018-Jun-14 06:09N 52°53' W 005°29'311.6
2018-Jun-14 05:56N 52°50' W 005°30'511.2
2018-Jun-14 05:30N 52°45' W 005°31'172 7.8
2018-Jun-13 07:34N 50°02' W 004°07'110.5
2018-Jun-13 07:30N 50°02' W 004°06'710.2
2018-Jun-13 06:48N 50°04' W 003°55'3 9.8
2018-Jun-13 06:30N 50°05' W 003°51'5 9.4
2018-Jun-13 06:00N 50°06' W 003°44'5 9.4
2018-Jun-13 05:30N 50°07' W 003°37'5 9.9
2018-Jun-13 05:00N 50°08' W 003°29'510.0
2018-Jun-13 04:30N 50°10' W 003°22'510.5
2018-Jun-13 04:00N 50°11' W 003°14'510.6
2018-Jun-13 03:30N 50°12' W 003°06'611.0
2018-Jun-13 03:00N 50°13' W 002°57'611.8
2018-Jun-13 02:29N 50°15' W 002°48'2013.3
2018-Jun-13 00:59N 50°18' W 002°17'9110.7
2018-Jun-12 16:25N 50°34' E 000°04'812.2
2018-Jun-12 15:43N 50°36' E 000°17'412.8
2018-Jun-12 15:26N 50°37' E 000°22'612.8
2018-Jun-12 15:00N 50°38' E 000°31'612.3
2018-Jun-12 14:31N 50°41' E 000°39'612.1
2018-Jun-12 14:00N 50°44' E 000°47'1411.4
2018-Jun-12 12:46N 50°53' E 001°05'310.7
2018-Jun-12 12:31N 50°55' E 001°09'510.1
2018-Jun-12 12:01N 50°58' E 001°15'5 9.2
2018-Jun-12 11:31N 51°01' E 001°21'4 8.6
2018-Jun-12 11:00N 51°03' E 001°26'4 8.7
2018-Jun-12 10:30N 51°06' E 001°31'4 8.9
2018-Jun-12 10:01N 51°09' E 001°36'5 9.2
2018-Jun-12 09:31N 51°12' E 001°42'5 9.9
2018-Jun-12 09:01N 51°16' E 001°46'611.4
2018-Jun-12 08:30N 51°21' E 001°50'612.3
2018-Jun-12 08:01N 51°27' E 001°54'912.8
2018-Jun-12 07:19N 51°34' E 002°04'513.3
2018-Jun-12 06:56N 51°37' E 002°09'613.0
2018-Jun-12 06:29N 51°41' E 002°16'712.8
2018-Jun-12 05:58N 51°46' E 002°23'6210.3
2018-Jun-11 23:58N 52°28' E 003°37'610.4
2018-Jun-11 23:26N 52°30' E 003°46'510.9
2018-Jun-11 22:56N 52°31' E 003°55'511.3
2018-Jun-11 22:29N 52°31' E 004°03'711.1
2018-Jun-11 21:53N 52°31' E 004°14'410.9
2018-Jun-11 21:29N 52°30' E 004°21'510.8
2018-Jun-11 21:00N 52°28' E 004°29'4 8.4
2018-Jun-11 20:30N 52°28' E 004°36'1 2.0
2018-Jun-11 20:01N 52°28' E 004°37'2 3.5
2018-Jun-11 19:30N 52°27' E 004°40'3 5.2
2018-Jun-11 19:00N 52°26' E 004°44'4 7.1
2018-Jun-11 18:31N 52°25' E 004°49'2 4.0
2018-Jun-11 18:00N 52°24' E 004°52'0 0.0
2018-Jun-11 17:30N 52°24' E 004°52'0 0.0
2018-Jun-11 17:00N 52°24' E 004°52'0 0.0
2018-Jun-11 16:30N 52°24' E 004°52'0 0.0
2018-Jun-11 16:00N 52°24' E 004°52'0 0.0
2018-Jun-11 15:30N 52°24' E 004°52'0 0.0
2018-Jun-11 15:00N 52°24' E 004°52'0 0.0
2018-Jun-11 14:27N 52°24' E 004°52'0 0.0
2018-Jun-11 13:54N 52°24' E 004°52'0 0.0
2018-Jun-11 13:27N 52°24' E 004°52'0 0.0
2018-Jun-11 12:51N 52°24' E 004°52'0 0.0
2018-Jun-11 12:30N 52°24' E 004°52'0 0.0
2018-Jun-11 12:00N 52°24' E 004°52'0 0.0
2018-Jun-11 11:27N 52°24' E 004°52'0 0.0
2018-Jun-11 11:00N 52°24' E 004°52'0 0.0
2018-Jun-11 10:30N 52°24' E 004°52'0 0.0
2018-Jun-11 09:57N 52°24' E 004°52'0 0.0
2018-Jun-11 09:30N 52°24' E 004°52'0 0.0
2018-Jun-11 09:00N 52°24' E 004°52'0 0.0
2018-Jun-11 08:30N 52°24' E 004°52'0 0.0
2018-Jun-11 07:57N 52°24' E 004°52'0 0.0
2018-Jun-11 07:30N 52°24' E 004°52'0 0.0
2018-Jun-11 07:00N 52°24' E 004°52'0 0.0
2018-Jun-11 06:30N 52°24' E 004°52'0 0.0
2018-Jun-11 06:00N 52°24' E 004°52'0 0.0
2018-Jun-11 05:30N 52°24' E 004°52'0 0.0
2018-Jun-11 05:00N 52°24' E 004°52'0 0.2
2018-Jun-11 04:31N 52°24' E 004°52'0 0.7
2018-Jun-11 03:58N 52°24' E 004°52'0 0.0
2018-Jun-11 03:28N 52°24' E 004°52'  
Track history (hours):
 
Tides and Currents Weather Stations Pressure Air Temp Water Temp Dewpoint Dewpoint Depression Visibility Wind Speed Wind Dir Waves Ship Positions

Leeni

Last reported at 2018-Jun-21 03:22 UTC. Time now 2018-Jun-21 16:29 UTC.
Position N 47°18' W 002°07'.

Length 90 m; draft 5.8 m.

Type: Tanker. MMSI: 210318000.

Date/timePositionNaut miles runAvg speedWind from/ knotsBaromVisibWave heightAir tempDewpointWater temp
2018-Jun-21 03:22N 47°18' W 002°07'0 0.0
2018-Jun-21 03:00N 47°18' W 002°07'1 2.0
2018-Jun-21 02:30N 47°18' W 002°08'4 7.2
2018-Jun-21 02:00N 47°15' W 002°12'4 8.3
2018-Jun-21 01:30N 47°13' W 002°17'5 9.5
2018-Jun-21 01:00N 47°09' W 002°20'3 6.9
2018-Jun-21 00:31N 47°07' W 002°24'0 0.6
2018-Jun-20 23:56N 47°07' W 002°25'0 0.0
2018-Jun-20 23:29N 47°07' W 002°25'0 0.1
2018-Jun-20 22:56N 47°07' W 002°25'0 0.0
2018-Jun-20 22:29N 47°07' W 002°25'0 0.0
2018-Jun-20 21:59N 47°07' W 002°25'0 0.0
2018-Jun-20 21:29N 47°07' W 002°25'0 0.0
2018-Jun-20 20:38N 47°07' W 002°25'0 0.1
2018-Jun-20 20:29N 47°07' W 002°25'0 0.0
2018-Jun-20 19:59N 47°07' W 002°25'142 9.1
2018-Jun-20 04:21N 44°46' W 002°56'511.1
2018-Jun-20 03:53N 44°41' W 002°57'410.9
2018-Jun-20 03:30N 44°37' W 002°57'510.4
2018-Jun-20 02:59N 44°32' W 002°58'510.6
2018-Jun-20 02:31N 44°27' W 002°59'611.0
2018-Jun-20 01:59N 44°21' W 002°59'2111.0
2018-Jun-20 00:06N 44°00' W 003°01'111.1
2018-Jun-20 00:00N 43°59' W 003°01'910.9
2018-Jun-19 23:10N 43°50' W 003°03'210.9
2018-Jun-19 23:00N 43°48' W 003°03'610.9
2018-Jun-19 22:28N 43°43' W 003°04'511.1
2018-Jun-19 22:00N 43°37' W 003°05'611.3
2018-Jun-19 21:28N 43°31' W 003°05'511.2
2018-Jun-19 21:01N 43°26' W 003°05'5 9.2
2018-Jun-19 20:31N 43°22' W 003°05'0 0.0
2018-Jun-19 01:20N 43°22' W 003°05'0 0.5
2018-Jun-19 01:00N 43°22' W 003°05'3 5.1
2018-Jun-19 00:30N 43°24' W 003°04'0 0.1
2018-Jun-19 00:00N 43°24' W 003°04'0 0.0
2018-Jun-18 23:27N 43°24' W 003°04'0 0.0
2018-Jun-18 22:57N 43°24' W 003°04'0 0.0
2018-Jun-18 22:30N 43°24' W 003°04'0 0.0
2018-Jun-18 22:00N 43°24' W 003°04'0 0.0
2018-Jun-18 21:30N 43°24' W 003°04'0 0.0
2018-Jun-18 20:57N 43°24' W 003°04'0 0.0
2018-Jun-18 20:30N 43°24' W 003°04'0 0.0
2018-Jun-18 20:00N 43°24' W 003°04'0 0.1
2018-Jun-18 19:31N 43°24' W 003°04'2 3.7
2018-Jun-18 19:00N 43°25' W 003°06'4 8.8
2018-Jun-18 18:31N 43°29' W 003°09'611.3
2018-Jun-18 18:00N 43°34' W 003°12'611.4
2018-Jun-18 17:31N 43°40' W 003°15'611.3
2018-Jun-18 17:01N 43°45' W 003°18'  
2018-Jun-16 12:33N 52°47' W 005°36'110.5
2018-Jun-16 12:28N 52°48' W 005°36'510.2
2018-Jun-16 11:59N 52°53' W 005°35'5 9.5
2018-Jun-16 11:29N 52°57' W 005°34'8510.1
2018-Jun-16 03:02N 54°21' W 005°02'010.9
2018-Jun-16 03:00N 54°21' W 005°02'5 9.4
2018-Jun-16 02:30N 54°25' W 005°05'510.3
2018-Jun-16 02:01N 54°30' W 005°11'5 9.9
2018-Jun-16 01:31N 54°33' W 005°16'510.4
2018-Jun-16 01:01N 54°38' W 005°21'510.5
2018-Jun-16 00:31N 54°42' W 005°27'510.1
2018-Jun-16 00:00N 54°43' W 005°35'611.1
2018-Jun-15 23:30N 54°41' W 005°45'7 0.3
2018-Jun-14 21:48N 54°37' W 005°54'0 0.0
2018-Jun-14 21:30N 54°37' W 005°54'0 0.0
2018-Jun-14 21:00N 54°37' W 005°54'0 0.0
2018-Jun-14 20:27N 54°37' W 005°54'0 0.0
2018-Jun-14 19:57N 54°37' W 005°54'0 0.0
2018-Jun-14 19:28N 54°37' W 005°54'1 1.4
2018-Jun-14 19:00N 54°38' W 005°53'5 9.3
2018-Jun-14 18:30N 54°41' W 005°48'4 7.4
2018-Jun-14 18:00N 54°43' W 005°42'1 2.3
2018-Jun-14 17:30N 54°43' W 005°40'3 5.3
2018-Jun-14 17:00N 54°43' W 005°36'4 7.3
2018-Jun-14 16:30N 54°43' W 005°29'5 9.1
2018-Jun-14 16:00N 54°39' W 005°25'611.8
2018-Jun-14 15:30N 54°34' W 005°21'611.3
2018-Jun-14 15:00N 54°28' W 005°18'611.0
2018-Jun-14 14:30N 54°23' W 005°18'711.2
2018-Jun-14 13:55N 54°16' W 005°18'8410.8
2018-Jun-14 06:09N 52°53' W 005°29'311.6
2018-Jun-14 05:56N 52°50' W 005°30'511.2
2018-Jun-14 05:30N 52°45' W 005°31'172 7.8
2018-Jun-13 07:34N 50°02' W 004°07'110.5
2018-Jun-13 07:30N 50°02' W 004°06'710.2
2018-Jun-13 06:48N 50°04' W 003°55'3 9.8
2018-Jun-13 06:30N 50°05' W 003°51'5 9.4
2018-Jun-13 06:00N 50°06' W 003°44'5 9.4
2018-Jun-13 05:30N 50°07' W 003°37'5 9.9
2018-Jun-13 05:00N 50°08' W 003°29'510.0
2018-Jun-13 04:30N 50°10' W 003°22'510.5
2018-Jun-13 04:00N 50°11' W 003°14'510.6
2018-Jun-13 03:30N 50°12' W 003°06'611.0
2018-Jun-13 03:00N 50°13' W 002°57'611.8
2018-Jun-13 02:29N 50°15' W 002°48'2013.3
2018-Jun-13 00:59N 50°18' W 002°17'9110.7
2018-Jun-12 16:25N 50°34' E 000°04'812.2
2018-Jun-12 15:43N 50°36' E 000°17'412.8
2018-Jun-12 15:26N 50°37' E 000°22'612.8
2018-Jun-12 15:00N 50°38' E 000°31'612.3
2018-Jun-12 14:31N 50°41' E 000°39'612.1
2018-Jun-12 14:00N 50°44' E 000°47'1411.4
2018-Jun-12 12:46N 50°53' E 001°05'310.7
2018-Jun-12 12:31N 50°55' E 001°09'510.1
2018-Jun-12 12:01N 50°58' E 001°15'5 9.2
2018-Jun-12 11:31N 51°01' E 001°21'4 8.6
2018-Jun-12 11:00N 51°03' E 001°26'4 8.7
2018-Jun-12 10:30N 51°06' E 001°31'4 8.9
2018-Jun-12 10:01N 51°09' E 001°36'5 9.2
2018-Jun-12 09:31N 51°12' E 001°42'5 9.9
2018-Jun-12 09:01N 51°16' E 001°46'611.4
2018-Jun-12 08:30N 51°21' E 001°50'612.3
2018-Jun-12 08:01N 51°27' E 001°54'912.8
2018-Jun-12 07:19N 51°34' E 002°04'513.3
2018-Jun-12 06:56N 51°37' E 002°09'613.0
2018-Jun-12 06:29N 51°41' E 002°16'712.8
2018-Jun-12 05:58N 51°46' E 002°23'6210.3
2018-Jun-11 23:58N 52°28' E 003°37'610.4
2018-Jun-11 23:26N 52°30' E 003°46'510.9
2018-Jun-11 22:56N 52°31' E 003°55'511.3
2018-Jun-11 22:29N 52°31' E 004°03'711.1
2018-Jun-11 21:53N 52°31' E 004°14'410.9
2018-Jun-11 21:29N 52°30' E 004°21'510.8
2018-Jun-11 21:00N 52°28' E 004°29'4 8.4
2018-Jun-11 20:30N 52°28' E 004°36'1 2.0
2018-Jun-11 20:01N 52°28' E 004°37'2 3.5
2018-Jun-11 19:30N 52°27' E 004°40'3 5.2
2018-Jun-11 19:00N 52°26' E 004°44'4 7.1
2018-Jun-11 18:31N 52°25' E 004°49'2 4.0
2018-Jun-11 18:00N 52°24' E 004°52'0 0.0
2018-Jun-11 17:30N 52°24' E 004°52'0 0.0
2018-Jun-11 17:00N 52°24' E 004°52'0 0.0
2018-Jun-11 16:30N 52°24' E 004°52'0 0.0
2018-Jun-11 16:00N 52°24' E 004°52'0 0.0
2018-Jun-11 15:30N 52°24' E 004°52'0 0.0
2018-Jun-11 15:00N 52°24' E 004°52'0 0.0
2018-Jun-11 14:27N 52°24' E 004°52'0 0.0
2018-Jun-11 13:54N 52°24' E 004°52'0 0.0
2018-Jun-11 13:27N 52°24' E 004°52'0 0.0
2018-Jun-11 12:51N 52°24' E 004°52'0 0.0
2018-Jun-11 12:30N 52°24' E 004°52'0 0.0
2018-Jun-11 12:00N 52°24' E 004°52'0 0.0
2018-Jun-11 11:27N 52°24' E 004°52'0 0.0
2018-Jun-11 11:00N 52°24' E 004°52'0 0.0
2018-Jun-11 10:30N 52°24' E 004°52'0 0.0
2018-Jun-11 09:57N 52°24' E 004°52'0 0.0
2018-Jun-11 09:30N 52°24' E 004°52'0 0.0
2018-Jun-11 09:00N 52°24' E 004°52'0 0.0
2018-Jun-11 08:30N 52°24' E 004°52'0 0.0
2018-Jun-11 07:57N 52°24' E 004°52'0 0.0
2018-Jun-11 07:30N 52°24' E 004°52'0 0.0
2018-Jun-11 07:00N 52°24' E 004°52'0 0.0
2018-Jun-11 06:30N 52°24' E 004°52'0 0.0
2018-Jun-11 06:00N 52°24' E 004°52'0 0.0
2018-Jun-11 05:30N 52°24' E 004°52'0 0.0
2018-Jun-11 05:00N 52°24' E 004°52'0 0.2
2018-Jun-11 04:31N 52°24' E 004°52'0 0.7
2018-Jun-11 03:58N 52°24' E 004°52'0 0.0
2018-Jun-11 03:28N 52°24' E 004°52'  

Dump ship's entire track history